Time;durP1;ratioP1;P1;durP2;ratioP2;P2;SDS_P1;SDS_P2;PMS_P1;PMS_P2;Temp;Humidity;BMP_temperature;BMP_pressure;BME280_temperature;BME280_humidity;BME280_pressure;Samples;Min_cycle;Max_cycle;Signal;HPM_P1;HPM_P2
2021/09/23 00:02:36;;;;;;;8.93;5.30;;;;;;;11.13;86.02;100725.00;10340695;28;20054;-74
2021/09/23 00:07:39;;;;;;;6.97;4.75;;;;;;;10.99;87.18;100714.78;10339061;28;20124;-73
2021/09/23 00:12:41;;;;;;;12.13;6.53;;;;;;;10.94;87.00;100714.03;10355383;28;20058;-73
2021/09/23 00:17:48;;;;;;;5.03;4.47;;;;;;;10.80;87.22;100706.41;10338336;28;20053;-73
2021/09/23 00:22:51;;;;;;;7.30;4.85;;;;;;;10.79;87.80;100705.56;10339003;28;20100;-73
2021/09/23 00:27:55;;;;;;;8.15;5.35;;;;;;;10.60;88.47;100694.56;10339925;28;20038;-73
2021/09/23 00:32:57;;;;;;;5.68;4.78;;;;;;;10.58;88.89;100699.03;10339300;28;20567;-73
2021/09/23 00:37:59;;;;;;;6.10;5.07;;;;;;;10.46;89.50;100704.53;10337546;28;20101;-73
2021/09/23 00:43:02;;;;;;;6.78;5.00;;;;;;;10.40;90.44;100693.25;10337561;28;20054;-73
2021/09/23 00:48:04;;;;;;;7.70;6.10;;;;;;;10.39;91.48;100692.41;10336294;28;20441;-73
2021/09/23 00:53:08;;;;;;;12.48;6.13;;;;;;;10.41;91.23;100698.50;10337081;28;20049;-74
2021/09/23 00:58:10;;;;;;;6.38;4.68;;;;;;;10.42;91.11;100708.09;10337852;28;20110;-73
2021/09/23 01:03:16;;;;;;;7.25;6.47;;;;;;;10.40;90.60;100714.28;10352395;28;20512;-74
2021/09/23 01:08:19;;;;;;;9.60;6.25;;;;;;;10.33;90.58;100698.66;10353659;28;20053;-73
2021/09/23 01:13:22;;;;;;;6.63;5.95;;;;;;;10.32;90.03;100704.81;10335714;28;20042;-73
2021/09/23 01:18:34;;;;;;;8.40;6.32;;;;;;;10.21;90.98;100703.25;10394530;22;20045;-69
2021/09/23 01:23:37;;;;;;;7.78;6.20;;;;;;;10.18;91.48;100695.41;10398565;28;20049;-67
2021/09/23 01:28:39;;;;;;;7.88;6.13;;;;;;;10.15;91.02;100690.25;10399155;28;20038;-67
2021/09/23 01:33:41;;;;;;;8.23;6.88;;;;;;;10.08;91.47;100686.84;10398719;28;20136;-68
2021/09/23 01:38:43;;;;;;;7.32;6.50;;;;;;;10.27;91.44;100683.03;10398115;28;20052;-67
2021/09/23 01:43:46;;;;;;;8.98;6.63;;;;;;;10.28;90.57;100689.13;10397742;28;20076;-67
2021/09/23 01:48:48;;;;;;;7.72;6.75;;;;;;;10.02;92.27;100672.09;10401499;28;20045;-67
2021/09/23 01:53:50;;;;;;;8.65;7.57;;;;;;;9.91;93.09;100678.41;10397461;28;20080;-67
2021/09/23 01:58:52;;;;;;;9.02;7.47;;;;;;;9.92;92.97;100665.28;10397461;28;20066;-67
2021/09/23 02:03:54;;;;;;;7.95;7.15;;;;;;;10.12;92.69;100670.13;10397106;28;20136;-67
2021/09/23 02:09:26;;;;;;;8.18;7.38;;;;;;;10.13;93.13;100663.13;10405963;28;20046;-67
2021/09/23 02:14:29;;;;;;;7.93;7.10;;;;;;;10.44;92.23;100635.34;10397061;28;20045;-67
2021/09/23 02:19:31;;;;;;;7.75;6.97;;;;;;;10.48;92.73;100630.88;10414211;28;20036;-67
2021/09/23 02:24:33;;;;;;;9.48;8.55;;;;;;;10.61;92.53;100611.31;10396470;28;20053;-68
2021/09/23 02:29:36;;;;;;;9.00;8.13;;;;;;;10.55;92.87;100608.84;10396461;28;20073;-67
2021/09/23 02:34:38;;;;;;;11.00;8.07;;;;;;;10.74;91.79;100590.88;10414027;28;20467;-68
2021/09/23 02:39:40;;;;;;;9.25;8.38;;;;;;;11.06;88.53;100593.56;10414155;28;20043;-67
2021/09/23 02:44:42;;;;;;;9.85;8.95;;;;;;;11.13;87.75;100598.69;10414092;28;20049;-68
2021/09/23 02:49:43;;;;;;;8.98;8.07;;;;;;;11.26;86.65;100587.81;10414046;28;20049;-67
2021/09/23 02:54:45;;;;;;;8.45;7.75;;;;;;;10.98;87.37;100573.63;10396027;28;20071;-67
2021/09/23 02:59:47;;;;;;;9.45;8.60;;;;;;;10.83;88.29;100565.22;10414261;28;20049;-67
2021/09/23 03:04:48;;;;;;;9.80;9.07;;;;;;;10.58;89.57;100561.44;10395748;28;20050;-67
2021/09/23 03:09:51;;;;;;;9.20;8.23;;;;;;;10.39;90.15;100555.72;10397540;28;20076;-68
2021/09/23 03:14:53;;;;;;;8.52;7.72;;;;;;;10.26;90.56;100541.13;10404340;28;20053;-67
2021/09/23 03:19:55;;;;;;;9.40;8.70;;;;;;;10.17;90.93;100533.44;10403539;28;20053;-67
2021/09/23 03:24:56;;;;;;;11.48;8.10;;;;;;;10.01;90.94;100528.53;10403470;28;20111;-67
2021/09/23 03:29:58;;;;;;;8.65;8.02;;;;;;;9.90;91.17;100532.28;10403036;28;20081;-68
2021/09/23 03:34:59;;;;;;;10.48;9.45;;;;;;;9.79;91.84;100537.75;10420802;28;20454;-67
2021/09/23 03:40:03;;;;;;;9.60;8.60;;;;;;;9.71;92.36;100537.03;10421798;28;20044;-67
2021/09/23 03:45:07;;;;;;;10.02;8.57;;;;;;;9.64;92.54;100545.91;10402783;28;20050;-67
2021/09/23 03:50:09;;;;;;;9.18;7.93;;;;;;;9.60;92.26;100535.47;10403206;28;20045;-67
2021/09/23 03:55:11;;;;;;;11.68;9.60;;;;;;;9.56;91.93;100531.22;10421265;28;20107;-68
2021/09/23 04:00:17;;;;;;;9.90;9.18;;;;;;;9.56;92.10;100531.22;10403518;28;20567;-68
2021/09/23 04:05:21;;;;;;;10.77;9.68;;;;;;;9.50;91.81;100526.06;10402869;28;20103;-68
2021/09/23 04:10:23;;;;;;;13.82;10.10;;;;;;;9.69;92.27;100523.94;10402362;28;20498;-68
2021/09/23 04:15:25;;;;;;;12.45;10.65;;;;;;;9.62;92.02;100518.84;10386820;28;20426;-68
2021/09/23 04:20:33;;;;;;;16.73;10.68;;;;;;;9.60;92.35;100517.09;10400867;28;20099;-68
2021/09/23 04:25:35;;;;;;;11.23;10.27;;;;;;;9.31;92.31;100503.72;10418621;28;20251;-68
2021/09/23 04:30:36;;;;;;;12.02;10.30;;;;;;;9.16;92.85;100498.72;10402267;28;20398;-69
2021/09/23 04:35:38;;;;;;;11.23;10.32;;;;;;;9.09;94.12;100501.47;10384901;28;20065;-69
2021/09/23 04:40:40;;;;;;;11.65;9.52;;;;;;;9.24;94.34;100496.84;10400960;28;20143;-68
2021/09/23 04:45:42;;;;;;;12.88;10.57;;;;;;;9.58;93.18;100479.53;10418742;28;20041;-67
2021/09/23 04:50:44;;;;;;;11.45;10.35;;;;;;;9.42;93.08;100474.63;10418103;28;20108;-68
2021/09/23 04:55:46;;;;;;;10.45;9.45;;;;;;;9.15;94.05;100460.28;10384118;28;20502;-68
2021/09/23 05:00:47;;;;;;;11.77;10.55;;;;;;;9.24;94.10;100460.13;10399752;28;20151;-68
2021/09/23 05:05:49;;;;;;;10.20;9.20;;;;;;;9.30;94.54;100460.88;10417948;28;20046;-68
2021/09/23 05:10:51;;;;;;;11.65;10.15;;;;;;;9.07;94.60;100463.06;10399628;28;20132;-68
2021/09/23 05:15:52;;;;;;;10.07;8.45;;;;;;;9.04;94.92;100453.50;10417189;28;20053;-70
2021/09/23 05:20:54;;;;;;;10.50;9.48;;;;;;;8.99;95.31;100455.34;10417411;28;20042;-68
2021/09/23 05:25:55;;;;;;;10.45;9.45;;;;;;;8.97;95.31;100451.88;10399668;28;20057;-68
2021/09/23 05:30:57;;;;;;;11.50;10.50;;;;;;;9.06;95.21;100448.22;10417076;28;20034;-68
2021/09/23 05:35:58;;;;;;;10.52;9.68;;;;;;;9.10;94.77;100452.50;10416900;28;20049;-68
2021/09/23 05:41:01;;;;;;;11.20;10.05;;;;;;;9.06;95.27;100445.59;10417078;28;20549;-68
2021/09/23 05:46:03;;;;;;;10.18;9.30;;;;;;;9.22;95.03;100446.19;10416028;28;20100;-68
2021/09/23 05:51:05;;;;;;;13.05;10.02;;;;;;;9.46;93.94;100442.19;10398340;28;20495;-68
2021/09/23 05:56:07;;;;;;;11.48;10.32;;;;;;;9.42;94.28;100451.00;10399633;28;20042;-68
2021/09/23 06:01:15;;;;;;;15.98;10.68;;;;;;;9.74;93.43;100445.06;10375186;28;20042;-68
2021/09/23 06:06:22;;;;;;;10.75;9.45;;;;;;;9.95;92.76;100439.34;10375473;28;20060;-68
2021/09/23 06:11:24;;;;;;;10.32;8.35;;;;;;;10.20;92.27;100429.16;10377830;28;20096;-69
2021/09/23 06:16:25;;;;;;;10.57;9.40;;;;;;;10.58;91.71;100433.50;10397327;28;20053;-68
2021/09/23 06:21:28;;;;;;;9.88;9.07;;;;;;;10.50;91.91;100434.59;10414599;28;20392;-67
2021/09/23 06:26:29;;;;;;;10.52;9.43;;;;;;;10.58;92.31;100435.25;10415920;28;20465;-68
2021/09/23 06:31:33;;;;;;;9.13;8.32;;;;;;;10.88;91.96;100423.06;10387510;28;20046;-70
2021/09/23 06:36:36;;;;;;;9.00;8.18;;;;;;;11.04;90.18;100440.19;10355723;28;20045;-70
2021/09/23 06:41:37;;;;;;;11.18;8.18;;;;;;;11.21;89.90;100437.09;10373668;28;20072;-71
2021/09/23 06:46:39;;;;;;;9.18;8.27;;;;;;;11.57;89.30;100424.63;10379458;28;20111;-69
2021/09/23 06:51:41;;;;;;;7.68;7.07;;;;;;;11.81;87.40;100409.84;10381294;28;20553;-70
2021/09/23 06:56:43;;;;;;;9.15;8.20;;;;;;;11.88;87.49;100405.31;10381340;28;20419;-72
2021/09/23 07:01:45;;;;;;;10.13;8.90;;;;;;;12.20;86.35;100409.53;10381502;28;20053;-70
2021/09/23 07:07:16;;;;;;;8.20;7.43;;;;;;;12.41;86.36;100407.13;10405818;28;20049;-71
2021/09/23 07:12:20;;;;;;;10.30;7.63;;;;;;;12.77;85.26;100397.09;10404811;28;20455;-71
2021/09/23 07:17:23;;;;;;;12.63;8.65;;;;;;;13.00;84.49;100391.00;10436705;22;20494;-74
2021/09/23 07:22:25;;;;;;;9.02;8.13;;;;;;;13.23;83.41;100385.75;10420890;28;20430;-75
2021/09/23 07:27:26;;;;;;;8.55;7.75;;;;;;;13.38;80.88;100374.63;10404395;28;20219;-75
2021/09/23 07:32:28;;;;;;;7.07;6.53;;;;;;;13.92;79.29;100369.91;10403904;28;20067;-75
2021/09/23 07:37:29;;;;;;;7.25;6.63;;;;;;;14.06;79.15;100358.75;10403983;28;20053;-75
2021/09/23 07:42:32;;;;;;;7.63;6.57;;;;;;;14.59;78.26;100359.19;10387777;28;20045;-74
2021/09/23 07:47:34;;;;;;;3.53;3.17;;;;;;;15.10;72.26;100341.94;10421427;28;20443;-74
2021/09/23 07:52:36;;;;;;;3.28;2.70;;;;;;;15.54;68.17;100346.97;10403289;28;20132;-73
2021/09/23 07:57:38;;;;;;;3.75;2.45;;;;;;;15.71;67.73;100335.56;10421352;28;20037;-74
2021/09/23 08:02:40;;;;;;;2.90;2.60;;;;;;;15.88;69.32;100324.16;10420903;28;20439;-74
2021/09/23 08:07:47;;;;;;;3.65;2.10;;;;;;;16.10;66.61;100316.00;10383468;28;20045;-74
2021/09/23 08:12:50;;;;;;;5.03;2.33;;;;;;;16.39;62.66;100311.88;10385401;28;20446;-74
2021/09/23 08:17:53;;;;;;;2.58;1.95;;;;;;;16.64;61.82;100296.41;10386193;28;20049;-74
2021/09/23 08:22:58;;;;;;;2.33;2.05;;;;;;;16.77;63.28;100283.34;10402099;28;20038;-73
2021/09/23 08:28:00;;;;;;;3.40;1.80;;;;;;;16.92;63.03;100284.34;10402242;28;20209;-74
2021/09/23 08:33:01;;;;;;;2.83;1.85;;;;;;;17.17;61.45;100285.66;10402052;28;20120;-75
2021/09/23 08:38:03;;;;;;;8.95;2.40;;;;;;;17.25;61.44;100296.72;10420233;28;20449;-74
2021/09/23 08:43:06;;;;;;;4.80;2.15;;;;;;;17.36;60.44;100275.72;10385195;28;20120;-74
2021/09/23 08:48:09;;;;;;;3.17;1.52;;;;;;;17.47;59.05;100270.66;10401356;28;20056;-74
2021/09/23 08:53:10;;;;;;;6.28;1.80;;;;;;;17.44;57.92;100256.66;10401286;28;20107;-74
2021/09/23 08:58:12;;;;;;;3.30;1.63;;;;;;;17.57;56.88;100247.91;10400883;28;20052;-73
2021/09/23 09:03:16;;;;;;;1.77;1.67;;;;;;;17.54;57.27;100250.75;10384638;28;20115;-73
2021/09/23 09:08:44;;;;;;;3.17;2.00;;;;;;;17.49;58.20;100246.66;10387573;28;20441;-73
2021/09/23 09:13:52;;;;;;;3.17;2.08;;;;;;;17.58;57.05;100236.34;10400313;28;20071;-73
2021/09/23 09:18:57;;;;;;;2.80;1.95;;;;;;;17.50;58.54;100227.97;10383871;28;20107;-74
2021/09/23 09:24:04;;;;;;;2.95;2.25;;;;;;;17.74;57.69;100217.72;10384766;28;20507;-74
2021/09/23 09:29:08;;;;;;;3.08;2.55;;;;;;;18.04;55.67;100216.88;10400593;28;20049;-74
2021/09/23 09:34:10;;;;;;;2.20;2.00;;;;;;;18.48;55.82;100211.50;10399495;28;20433;-75
2021/09/23 09:39:21;;;;;;;2.65;1.85;;;;;;;19.07;54.65;100198.94;10401204;28;20057;-75
2021/09/23 09:44:24;;;;;;;3.47;2.33;;;;;;;19.48;54.32;100194.50;10399509;28;20049;-73
2021/09/23 09:49:30;;;;;;;1.75;1.63;;;;;;;19.57;53.20;100181.44;10417120;28;20413;-73
2021/09/23 09:54:32;;;;;;;2.13;1.92;;;;;;;19.57;52.35;100173.44;10398794;28;20419;-73
2021/09/23 09:59:34;;;;;;;2.10;1.90;;;;;;;19.79;52.91;100162.22;10398631;28;20045;-73
2021/09/23 10:04:37;;;;;;;1.98;1.77;;;;;;;20.27;50.68;100151.75;10398650;28;20061;-73
2021/09/23 10:09:40;;;;;;;2.35;2.15;;;;;;;20.79;50.76;100136.56;10399209;28;20037;-74
2021/09/23 10:14:45;;;;;;;2.00;1.80;;;;;;;20.79;50.95;100126.72;10398857;28;20055;-73
2021/09/23 10:19:48;;;;;;;1.92;1.83;;;;;;;21.08;48.33;100119.25;10416483;28;20042;-71
2021/09/23 10:24:50;;;;;;;3.08;1.80;;;;;;;20.78;50.18;100110.81;10397411;28;20412;-73
2021/09/23 10:29:54;;;;;;;3.28;1.50;;;;;;;20.97;49.72;100096.94;10398014;28;20045;-73
2021/09/23 10:34:56;;;;;;;2.92;1.75;;;;;;;21.52;46.96;100101.72;10381664;28;20049;-74
2021/09/23 10:39:59;;;;;;;2.13;1.70;;;;;;;21.27;48.63;100085.78;10398694;28;20044;-72
2021/09/23 10:45:06;;;;;;;2.20;1.40;;;;;;;20.88;47.71;100072.59;10398520;28;20509;-72
2021/09/23 10:50:08;;;;;;;1.70;1.60;;;;;;;20.90;49.12;100070.69;10398754;28;20045;-74
2021/09/23 10:55:10;;;;;;;1.88;1.73;;;;;;;21.33;48.53;100058.59;10381539;28;20562;-72
2021/09/23 11:00:14;;;;;;;1.98;1.67;;;;;;;21.32;48.78;100056.91;10397723;28;20048;-73
2021/09/23 11:05:18;;;;;;;2.28;1.33;;;;;;;21.64;48.17;100041.91;10381385;28;20054;-72
2021/09/23 11:10:24;;;;;;;1.50;1.40;;;;;;;21.92;44.66;100029.91;10397761;28;20042;-72
2021/09/23 11:15:29;;;;;;;1.63;1.35;;;;;;;22.41;46.97;100015.31;10397729;28;20125;-73
2021/09/23 11:20:32;;;;;;;2.23;1.40;;;;;;;22.56;43.37;100018.53;10397122;28;20037;-72
2021/09/23 11:25:46;;;;;;;3.17;1.75;;;;;;;22.61;41.88;100010.13;10397429;28;20299;-72
2021/09/23 11:30:51;;;;;;;2.05;1.50;;;;;;;22.48;44.54;99993.34;10398340;28;20132;-73
2021/09/23 11:35:55;;;;;;;2.53;1.80;;;;;;;22.72;42.88;99975.28;10406520;28;20045;-72
2021/09/23 11:40:59;;;;;;;1.70;1.55;;;;;;;22.66;42.64;99968.56;10405190;28;20137;-72
2021/09/23 11:46:03;;;;;;;4.38;1.98;;;;;;;22.33;43.05;99980.25;10404432;28;20089;-71
2021/09/23 11:51:09;;;;;;;3.38;1.60;;;;;;;21.88;43.19;99958.88;10404224;28;20045;-70
2021/09/23 11:56:17;;;;;;;1.70;1.60;;;;;;;22.26;43.93;99946.91;10403793;28;20124;-70
2021/09/23 12:01:21;;;;;;;4.90;1.80;;;;;;;22.33;43.05;99941.91;10404723;28;20384;-70
2021/09/23 12:06:26;;;;;;;2.40;1.90;;;;;;;21.98;43.35;99926.88;10405616;28;20077;-71
2021/09/23 12:11:37;;;;;;;2.20;2.00;;;;;;;21.89;43.64;99922.25;10403988;28;20108;-72
2021/09/23 12:17:02;;;;;;;3.72;1.50;;;;;;;22.02;43.45;99906.06;10403250;28;20049;-71
2021/09/23 12:22:06;;;;;;;2.30;1.83;;;;;;;22.07;43.82;99901.19;10421291;28;20046;-72
2021/09/23 12:27:14;;;;;;;2.10;1.80;;;;;;;22.14;43.64;99903.28;10403265;28;20052;-72
2021/09/23 12:32:17;;;;;;;2.28;1.80;;;;;;;21.94;44.03;99913.84;10402123;28;20082;-71
2021/09/23 12:37:23;;;;;;;3.05;2.00;;;;;;;21.71;42.85;99903.19;10402217;28;20049;-70
2021/09/23 12:42:36;;;;;;;2.53;1.83;;;;;;;21.82;44.47;99880.91;10401195;28;20057;-70
2021/09/23 12:47:53;;;;;;;3.33;2.13;;;;;;;21.84;44.11;99860.25;10385858;28;20499;-71
2021/09/23 12:52:59;;;;;;;10.13;2.22;;;;;;;21.76;44.52;99858.19;10401016;28;20411;-71
2021/09/23 12:58:04;;;;;;;2.75;1.85;;;;;;;21.79;44.01;99851.75;10385376;28;20073;-71
2021/09/23 13:03:18;;;;;;;2.10;1.90;;;;;;;21.90;45.06;99835.66;10401508;28;20038;-71
2021/09/23 13:08:46;;;;;;;4.40;2.53;;;;;;;21.87;43.20;99822.53;10411052;28;20045;-70
2021/09/23 13:13:49;;;;;;;3.92;2.08;;;;;;;21.72;45.03;99807.72;10384745;28;20041;-70
2021/09/23 13:18:56;;;;;;;5.22;3.05;;;;;;;21.64;44.14;99813.69;10401120;28;20045;-73
2021/09/23 13:24:25;;;;;;;3.28;2.30;;;;;;;21.51;43.68;99803.13;10400555;28;20462;-72
2021/09/23 13:29:27;;;;;;;2.92;2.20;;;;;;;21.66;42.68;99791.19;10384050;28;20514;-72
2021/09/23 13:34:29;;;;;;;2.17;1.88;;;;;;;21.69;42.90;99791.91;10399900;28;20060;-72
2021/09/23 13:39:37;;;;;;;2.35;1.95;;;;;;;21.69;42.81;99787.41;10399740;28;20060;-72
2021/09/23 13:44:42;;;;;;;2.35;2.05;;;;;;;21.82;44.71;99777.41;10385358;28;20553;-73
2021/09/23 13:49:45;;;;;;;4.32;2.60;;;;;;;21.73;44.06;99771.97;10398901;28;20456;-72
2021/09/23 13:54:49;;;;;;;2.10;1.80;;;;;;;21.58;44.05;99764.22;10398729;28;20065;-72
2021/09/23 13:59:51;;;;;;;2.20;1.85;;;;;;;21.51;43.76;99762.16;10398640;28;20511;-71
2021/09/23 14:04:54;;;;;;;3.50;1.90;;;;;;;21.62;43.14;99746.09;10382242;28;20069;-72
2021/09/23 14:09:56;;;;;;;4.88;1.75;;;;;;;21.52;43.58;99740.66;10398871;28;20041;-70
2021/09/23 14:15:15;;;;;;;3.42;2.10;;;;;;;21.55;43.49;99724.34;10399148;28;20122;-71
2021/09/23 14:20:17;;;;;;;3.20;2.20;;;;;;;21.51;44.37;99714.03;10416062;28;20041;-72
2021/09/23 14:25:20;;;;;;;2.35;1.95;;;;;;;21.42;43.67;99715.63;10397632;28;20095;-71
2021/09/23 14:30:22;;;;;;;2.15;1.95;;;;;;;21.42;42.60;99704.94;10381479;28;20037;-71
2021/09/23 14:35:24;;;;;;;2.47;2.25;;;;;;;21.35;43.98;99704.59;10381980;28;20049;-71
2021/09/23 14:40:27;;;;;;;2.35;1.90;;;;;;;21.47;43.42;99705.44;10416211;28;20053;-73
2021/09/23 14:45:29;;;;;;;2.10;2.00;;;;;;;21.50;43.22;99686.44;10416007;28;20049;-70
2021/09/23 14:50:31;;;;;;;2.70;1.90;;;;;;;21.50;44.04;99680.25;10414953;28;20053;-72
2021/09/23 14:55:33;;;;;;;3.40;1.92;;;;;;;21.34;43.85;99684.19;10414829;28;20038;-72
2021/09/23 15:00:35;;;;;;;5.10;2.10;;;;;;;21.09;42.70;99653.25;10416122;28;20044;-71
2021/09/23 15:05:37;;;;;;;4.20;2.00;;;;;;;20.96;42.91;99646.34;10415751;28;20544;-73
2021/09/23 15:10:38;;;;;;;6.75;2.30;;;;;;;20.93;43.08;99631.41;10423089;28;20121;-71
2021/09/23 15:15:40;;;;;;;2.10;1.80;;;;;;;20.84;42.57;99621.47;10423139;28;20097;-72
2021/09/23 15:20:43;;;;;;;2.95;1.92;;;;;;;20.83;43.05;99607.25;10422841;28;20046;-71
2021/09/23 15:25:45;;;;;;;3.38;2.40;;;;;;;20.79;43.23;99608.47;10404390;28;20053;-71
2021/09/23 15:30:47;;;;;;;2.72;2.22;;;;;;;20.75;43.69;99606.19;10422005;28;20088;-72
2021/09/23 15:35:48;;;;;;;2.47;2.28;;;;;;;20.59;43.81;99595.91;10421951;28;20045;-73
2021/09/23 15:40:51;;;;;;;3.15;2.08;;;;;;;20.41;44.44;99591.03;10422484;28;20072;-72
2021/09/23 15:45:53;;;;;;;4.00;2.15;;;;;;;20.46;43.77;99581.81;10421721;28;20499;-72
2021/09/23 15:50:55;;;;;;;2.00;1.90;;;;;;;20.33;44.21;99589.94;10420774;28;20116;-72
2021/09/23 15:55:56;;;;;;;2.55;2.35;;;;;;;20.27;44.84;99583.25;10420751;28;20049;-72
2021/09/23 16:00:58;;;;;;;2.88;1.80;;;;;;;20.15;44.91;99569.06;10420347;28;20557;-72
2021/09/23 16:06:00;;;;;;;2.60;2.05;;;;;;;20.13;44.56;99572.81;10420762;28;20099;-71
2021/09/23 16:11:01;;;;;;;2.88;2.35;;;;;;;19.97;45.45;99567.84;10419902;28;20100;-71
2021/09/23 16:16:04;;;;;;;4.35;2.47;;;;;;;19.95;45.82;99564.44;10420775;28;20485;-73
2021/09/23 16:21:06;;;;;;;2.63;2.35;;;;;;;20.00;45.24;99561.41;10401405;28;20574;-74
2021/09/23 16:26:09;;;;;;;3.83;2.08;;;;;;;19.78;45.71;99543.56;10401614;28;20137;-73
2021/09/23 16:31:11;;;;;;;4.28;2.30;;;;;;;19.79;46.47;99539.91;10420160;28;20044;-73
2021/09/23 16:36:12;;;;;;;3.13;2.15;;;;;;;19.73;46.03;99532.41;10401761;28;20046;-73
2021/09/23 16:41:14;;;;;;;5.15;2.55;;;;;;;19.68;46.33;99529.25;10420413;28;20087;-73
2021/09/23 16:46:16;;;;;;;7.18;2.22;;;;;;;19.52;46.90;99530.41;10419024;28;20053;-71
2021/09/23 16:51:19;;;;;;;3.33;2.25;;;;;;;19.23;48.18;99531.78;10419511;28;20038;-72
2021/09/23 16:56:20;;;;;;;2.65;2.25;;;;;;;19.24;48.03;99525.47;10384578;28;20111;-72
2021/09/23 17:01:22;;;;;;;4.07;2.25;;;;;;;19.11;48.76;99523.72;10418620;28;20037;-74
2021/09/23 17:06:26;;;;;;;2.42;2.22;;;;;;;19.02;49.02;99519.09;10418069;28;20041;-74
2021/09/23 17:11:30;;;;;;;4.18;2.78;;;;;;;19.10;49.09;99505.19;10417920;28;20029;-73
2021/09/23 17:16:32;;;;;;;3.28;2.33;;;;;;;18.96;49.12;99497.41;10399967;28;20057;-74
2021/09/23 17:21:34;;;;;;;3.25;2.05;;;;;;;18.89;49.93;99492.50;10399556;28;20046;-73
2021/09/23 17:26:37;;;;;;;3.53;2.60;;;;;;;18.72;50.19;99510.72;10417281;28;20041;-74
2021/09/23 17:31:40;;;;;;;2.35;2.15;;;;;;;18.74;50.22;99506.97;10417435;28;20069;-72
2021/09/23 17:36:41;;;;;;;3.17;2.25;;;;;;;18.95;49.61;99509.88;10416712;28;20048;-72
2021/09/23 17:41:44;;;;;;;4.68;2.75;;;;;;;18.85;50.33;99503.50;10417476;28;20399;-73
2021/09/23 17:46:45;;;;;;;3.53;3.22;;;;;;;18.71;50.41;99501.88;10416952;28;20064;-72
2021/09/23 17:51:47;;;;;;;3.20;2.70;;;;;;;18.86;49.69;99502.56;10416289;28;20049;-73
2021/09/23 17:56:49;;;;;;;8.60;3.22;;;;;;;18.78;49.95;99504.94;10415933;28;20438;-73
2021/09/23 18:01:51;;;;;;;6.07;2.10;;;;;;;18.93;49.48;99498.47;10416109;28;20415;-72
2021/09/23 18:06:53;;;;;;;2.90;2.10;;;;;;;18.87;50.51;99485.63;10382045;28;20053;-73
2021/09/23 18:12:00;;;;;;;2.95;2.35;;;;;;;18.93;49.96;99478.97;10416599;28;20044;-73
2021/09/23 18:17:02;;;;;;;2.50;2.30;;;;;;;18.83;50.18;99485.00;10415044;28;20046;-72
2021/09/23 18:22:04;;;;;;;4.30;2.63;;;;;;;18.88;50.42;99485.50;10414702;28;20052;-74
2021/09/23 18:27:05;;;;;;;4.13;2.47;;;;;;;18.84;50.64;99500.00;10397253;28;20048;-73
2021/09/23 18:32:07;;;;;;;4.55;2.78;;;;;;;18.70;50.97;99494.84;10415778;28;20483;-73
2021/09/23 18:37:09;;;;;;;3.30;2.55;;;;;;;18.64;51.02;99490.81;10414851;28;20561;-71
2021/09/23 18:42:10;;;;;;;2.50;2.30;;;;;;;18.76;50.85;99498.88;10395676;28;20045;-72
2021/09/23 18:47:13;;;;;;;3.95;2.40;;;;;;;18.60;51.13;99485.84;10396810;28;20053;-74
2021/09/23 18:52:14;;;;;;;3.28;2.63;;;;;;;18.51;51.76;99492.69;10397055;28;20052;-73
2021/09/23 18:57:16;;;;;;;4.80;2.30;;;;;;;18.34;52.46;99479.75;10396873;28;20060;-73
2021/09/23 19:02:18;;;;;;;3.78;2.20;;;;;;;18.43;51.86;99473.75;10415011;28;20041;-72
2021/09/23 19:07:22;;;;;;;3.72;2.53;;;;;;;18.47;52.08;99480.56;10414387;28;20045;-71
2021/09/23 19:12:24;;;;;;;4.63;2.75;;;;;;;18.45;51.94;99486.94;10414377;28;20056;-72
2021/09/23 19:17:26;;;;;;;2.10;1.90;;;;;;;18.54;51.76;99492.44;10413853;28;20067;-73
2021/09/23 19:22:28;;;;;;;2.97;1.98;;;;;;;18.50;51.66;99498.09;10414486;28;20053;-73
2021/09/23 19:27:30;;;;;;;2.55;1.98;;;;;;;18.55;51.39;99490.63;10414332;28;20049;-72
2021/09/23 19:32:33;;;;;;;2.72;1.90;;;;;;;18.56;51.13;99503.84;10414302;28;20045;-72
2021/09/23 19:37:37;;;;;;;2.38;2.05;;;;;;;18.51;51.56;99513.97;10415103;28;20041;-73
2021/09/23 19:42:39;;;;;;;2.45;1.60;;;;;;;18.64;51.01;99514.78;10414924;28;20053;-73
2021/09/23 19:47:43;;;;;;;3.05;2.10;;;;;;;18.51;51.41;99513.13;10414460;28;20598;-74
2021/09/23 19:52:45;;;;;;;3.90;1.80;;;;;;;18.39;52.17;99506.88;10416145;28;20049;-74
2021/09/23 19:57:47;;;;;;;3.42;1.50;;;;;;;18.49;51.15;99523.00;10387764;28;20056;-75
2021/09/23 20:02:49;;;;;;;2.60;1.95;;;;;;;18.50;51.36;99514.91;10421041;28;20060;-73
2021/09/23 20:07:50;;;;;;;4.13;1.60;;;;;;;18.50;51.40;99514.06;10422032;28;20049;-73
2021/09/23 20:12:52;;;;;;;2.00;1.80;;;;;;;18.51;51.25;99505.97;10420777;28;20041;-73
2021/09/23 20:17:54;;;;;;;2.78;1.65;;;;;;;18.51;50.94;99519.28;10420374;28;20048;-74
2021/09/23 20:22:56;;;;;;;2.40;1.67;;;;;;;18.50;51.28;99522.03;10421009;28;20112;-74
2021/09/23 20:27:57;;;;;;;3.53;1.98;;;;;;;18.48;51.87;99527.50;10420040;28;20048;-72
2021/09/23 20:32:59;;;;;;;2.28;1.90;;;;;;;18.29;52.08;99543.09;10402303;28;20053;-75
2021/09/23 20:38:01;;;;;;;1.95;1.50;;;;;;;18.38;52.03;99545.09;10419894;28;20045;-74
2021/09/23 20:43:03;;;;;;;2.05;1.50;;;;;;;18.41;51.89;99544.84;10402425;28;20052;-73
2021/09/23 20:48:05;;;;;;;2.42;1.80;;;;;;;18.38;51.98;99547.75;10420100;28;20041;-75
2021/09/23 20:53:06;;;;;;;2.10;1.85;;;;;;;18.13;53.54;99573.41;10420164;28;20049;-74
2021/09/23 20:58:27;;;;;;;2.53;1.58;;;;;;;18.30;52.91;99566.91;10418954;28;20064;-72
2021/09/23 21:03:29;;;;;;;2.28;2.08;;;;;;;18.18;53.35;99556.28;10418338;28;20041;-73
2021/09/23 21:08:31;;;;;;;3.20;1.83;;;;;;;18.17;53.38;99559.91;10401402;28;20056;-74
2021/09/23 21:13:36;;;;;;;2.03;1.50;;;;;;;18.04;54.22;99557.25;10418713;28;20041;-73
2021/09/23 21:18:37;;;;;;;2.72;1.88;;;;;;;18.08;54.09;99567.56;10418239;28;20045;-72
2021/09/23 21:23:42;;;;;;;8.25;1.42;;;;;;;17.94;54.86;99553.56;10419105;28;20052;-75
2021/09/23 21:28:43;;;;;;;2.28;1.70;;;;;;;17.95;54.56;99548.13;10400112;28;20063;-72
2021/09/23 21:33:46;;;;;;;2.97;1.52;;;;;;;18.01;54.90;99555.66;10417285;28;20088;-73
2021/09/23 21:38:47;;;;;;;1.98;1.58;;;;;;;17.89;55.46;99543.25;10417617;28;20410;-73
2021/09/23 21:43:51;;;;;;;3.35;1.52;;;;;;;17.89;55.61;99549.41;10417419;28;20396;-72
2021/09/23 21:48:53;;;;;;;2.97;1.75;;;;;;;17.83;56.45;99562.25;10418247;28;20050;-73
2021/09/23 21:53:54;;;;;;;5.05;2.35;;;;;;;17.97;55.86;99545.34;10416873;28;20045;-74
2021/09/23 21:58:56;;;;;;;2.65;2.13;;;;;;;17.85;56.26;99545.25;10399050;28;20056;-73
2021/09/23 22:03:58;;;;;;;7.25;2.50;;;;;;;17.76;56.99;99537.91;10416588;28;20052;-73
2021/09/23 22:09:00;;;;;;;2.20;2.00;;;;;;;17.81;56.95;99549.09;10417630;28;20045;-73
2021/09/23 22:14:01;;;;;;;3.40;2.33;;;;;;;17.81;57.55;99548.25;10398407;28;20048;-74
2021/09/23 22:19:03;;;;;;;8.43;2.40;;;;;;;17.73;57.92;99543.41;10416290;28;20041;-73
2021/09/23 22:24:05;;;;;;;4.20;2.50;;;;;;;17.64;58.23;99544.03;10416892;28;20044;-73
2021/09/23 22:29:07;;;;;;;4.68;2.58;;;;;;;17.64;58.48;99547.56;10417115;28;20049;-73
2021/09/23 22:34:08;;;;;;;3.92;2.38;;;;;;;17.62;58.83;99553.94;10399364;28;20037;-73
2021/09/23 22:39:10;;;;;;;4.72;2.30;;;;;;;17.61;58.65;99560.19;10417709;28;20068;-73
2021/09/23 22:44:12;;;;;;;4.07;2.50;;;;;;;17.52;59.26;99550.19;10417466;28;20045;-74
2021/09/23 22:49:13;;;;;;;4.07;2.38;;;;;;;17.45;60.10;99557.75;10416613;28;20057;-75
2021/09/23 22:54:15;;;;;;;5.03;2.33;;;;;;;17.51;60.15;99567.09;10399025;28;20388;-74
2021/09/23 22:59:17;;;;;;;4.18;1.90;;;;;;;17.38;61.07;99559.09;10382883;28;20052;-73
2021/09/23 23:04:18;;;;;;;7.55;2.47;;;;;;;17.37;61.94;99598.09;10417000;28;20046;-74
2021/09/23 23:09:20;;;;;;;3.45;2.65;;;;;;;16.79;67.24;99612.53;10417719;28;20045;-74
2021/09/23 23:14:21;;;;;;;4.82;2.97;;;;;;;16.20;72.26;99619.75;10416496;28;20068;-73
2021/09/23 23:19:23;;;;;;;4.07;3.60;;;;;;;16.02;76.23;99624.38;10416504;28;20045;-73
2021/09/23 23:24:25;;;;;;;6.07;5.57;;;;;;;15.53;81.00;99637.88;10416201;28;20060;-74